sensor_id;sensor_type;location;lat;lon;timestamp;P1;durP1;ratioP1;P2;durP2;ratioP2
41897;SDS011;27576;53.366;-1.498;2023-08-01T00:01:42;4.47;;;1.88;;
41897;SDS011;27576;53.366;-1.498;2023-08-01T00:04:07;5.20;;;2.10;;
41897;SDS011;27576;53.366;-1.498;2023-08-01T00:06:33;5.05;;;1.73;;
41897;SDS011;27576;53.366;-1.498;2023-08-01T00:08:58;5.70;;;1.63;;
41897;SDS011;27576;53.366;-1.498;2023-08-01T00:11:23;6.20;;;1.88;;
41897;SDS011;27576;53.366;-1.498;2023-08-01T00:13:49;2.47;;;1.40;;
41897;SDS011;27576;53.366;-1.498;2023-08-01T00:16:14;3.17;;;1.42;;
41897;SDS011;27576;53.366;-1.498;2023-08-01T00:18:39;3.15;;;1.90;;
41897;SDS011;27576;53.366;-1.498;2023-08-01T00:21:05;2.70;;;1.40;;
41897;SDS011;27576;53.366;-1.498;2023-08-01T00:23:34;4.57;;;1.98;;
41897;SDS011;27576;53.366;-1.498;2023-08-01T00:25:59;4.63;;;1.80;;
41897;SDS011;27576;53.366;-1.498;2023-08-01T00:28:24;5.00;;;1.67;;
41897;SDS011;27576;53.366;-1.498;2023-08-01T00:31:00;4.88;;;2.30;;
41897;SDS011;27576;53.366;-1.498;2023-08-01T00:33:26;5.88;;;2.22;;
41897;SDS011;27576;53.366;-1.498;2023-08-01T00:35:54;5.85;;;2.00;;
41897;SDS011;27576;53.366;-1.498;2023-08-01T00:38:20;4.15;;;1.70;;
41897;SDS011;27576;53.366;-1.498;2023-08-01T00:40:45;3.85;;;2.00;;
41897;SDS011;27576;53.366;-1.498;2023-08-01T00:43:11;2.63;;;1.67;;
41897;SDS011;27576;53.366;-1.498;2023-08-01T00:45:37;2.80;;;2.00;;
41897;SDS011;27576;53.366;-1.498;2023-08-01T00:48:02;3.78;;;1.73;;
41897;SDS011;27576;53.366;-1.498;2023-08-01T00:50:28;5.45;;;1.70;;
41897;SDS011;27576;53.366;-1.498;2023-08-01T00:52:54;7.22;;;2.10;;
41897;SDS011;27576;53.366;-1.498;2023-08-01T00:55:19;6.85;;;1.98;;
41897;SDS011;27576;53.366;-1.498;2023-08-01T00:57:46;5.63;;;1.70;;
41897;SDS011;27576;53.366;-1.498;2023-08-01T01:00:12;4.55;;;1.95;;
41897;SDS011;27576;53.366;-1.498;2023-08-01T01:02:38;7.63;;;1.55;;
41897;SDS011;27576;53.366;-1.498;2023-08-01T01:05:04;6.75;;;2.00;;
41897;SDS011;27576;53.366;-1.498;2023-08-01T01:07:30;2.50;;;1.58;;
41897;SDS011;27576;53.366;-1.498;2023-08-01T01:09:57;3.42;;;1.45;;
41897;SDS011;27576;53.366;-1.498;2023-08-01T01:12:23;4.88;;;1.60;;
41897;SDS011;27576;53.366;-1.498;2023-08-01T01:14:48;8.85;;;1.88;;
41897;SDS011;27576;53.366;-1.498;2023-08-01T01:17:13;5.97;;;1.80;;
41897;SDS011;27576;53.366;-1.498;2023-08-01T01:19:39;4.63;;;1.77;;
41897;SDS011;27576;53.366;-1.498;2023-08-01T01:22:04;3.90;;;1.65;;
41897;SDS011;27576;53.366;-1.498;2023-08-01T01:24:31;4.38;;;1.58;;
41897;SDS011;27576;53.366;-1.498;2023-08-01T01:26:59;7.60;;;1.85;;
41897;SDS011;27576;53.366;-1.498;2023-08-01T01:29:26;3.95;;;1.80;;
41897;SDS011;27576;53.366;-1.498;2023-08-01T01:31:52;7.05;;;1.58;;
41897;SDS011;27576;53.366;-1.498;2023-08-01T01:34:18;6.22;;;1.73;;
41897;SDS011;27576;53.366;-1.498;2023-08-01T01:36:44;5.32;;;1.65;;
41897;SDS011;27576;53.366;-1.498;2023-08-01T01:39:09;6.90;;;2.03;;
41897;SDS011;27576;53.366;-1.498;2023-08-01T01:41:34;7.88;;;2.08;;
41897;SDS011;27576;53.366;-1.498;2023-08-01T01:44:00;5.97;;;1.50;;
41897;SDS011;27576;53.366;-1.498;2023-08-01T01:46:25;5.82;;;1.73;;
41897;SDS011;27576;53.366;-1.498;2023-08-01T01:48:51;5.90;;;1.80;;
41897;SDS011;27576;53.366;-1.498;2023-08-01T01:51:16;5.43;;;2.30;;
41897;SDS011;27576;53.366;-1.498;2023-08-01T01:53:41;3.85;;;1.40;;
41897;SDS011;27576;53.366;-1.498;2023-08-01T01:56:07;5.13;;;1.40;;
41897;SDS011;27576;53.366;-1.498;2023-08-01T01:58:32;4.85;;;1.88;;
41897;SDS011;27576;53.366;-1.498;2023-08-01T02:00:58;3.60;;;1.65;;
41897;SDS011;27576;53.366;-1.498;2023-08-01T02:03:23;5.40;;;1.52;;
41897;SDS011;27576;53.366;-1.498;2023-08-01T02:05:49;2.20;;;1.35;;
41897;SDS011;27576;53.366;-1.498;2023-08-01T02:08:14;5.63;;;1.60;;
41897;SDS011;27576;53.366;-1.498;2023-08-01T02:10:39;3.10;;;1.67;;
41897;SDS011;27576;53.366;-1.498;2023-08-01T02:13:04;4.88;;;2.00;;
41897;SDS011;27576;53.366;-1.498;2023-08-01T02:15:30;3.60;;;1.40;;
41897;SDS011;27576;53.366;-1.498;2023-08-01T02:17:56;4.30;;;1.48;;
41897;SDS011;27576;53.366;-1.498;2023-08-01T02:20:21;7.80;;;1.83;;
41897;SDS011;27576;53.366;-1.498;2023-08-01T02:22:46;6.32;;;1.73;;
41897;SDS011;27576;53.366;-1.498;2023-08-01T02:25:12;3.95;;;1.60;;
41897;SDS011;27576;53.366;-1.498;2023-08-01T02:27:37;4.82;;;1.40;;
41897;SDS011;27576;53.366;-1.498;2023-08-01T02:30:03;7.55;;;1.52;;
41897;SDS011;27576;53.366;-1.498;2023-08-01T02:32:30;4.78;;;2.05;;
41897;SDS011;27576;53.366;-1.498;2023-08-01T02:34:55;4.10;;;1.70;;
41897;SDS011;27576;53.366;-1.498;2023-08-01T02:37:21;6.03;;;1.70;;
41897;SDS011;27576;53.366;-1.498;2023-08-01T02:39:46;9.98;;;1.80;;
41897;SDS011;27576;53.366;-1.498;2023-08-01T02:42:11;7.85;;;2.22;;
41897;SDS011;27576;53.366;-1.498;2023-08-01T02:44:37;5.45;;;1.70;;
41897;SDS011;27576;53.366;-1.498;2023-08-01T02:47:02;8.82;;;2.40;;
41897;SDS011;27576;53.366;-1.498;2023-08-01T02:49:27;7.45;;;2.08;;
41897;SDS011;27576;53.366;-1.498;2023-08-01T02:51:53;5.20;;;1.80;;
41897;SDS011;27576;53.366;-1.498;2023-08-01T02:54:18;9.65;;;2.13;;
41897;SDS011;27576;53.366;-1.498;2023-08-01T02:56:43;2.85;;;1.70;;
41897;SDS011;27576;53.366;-1.498;2023-08-01T02:59:09;5.85;;;1.92;;
41897;SDS011;27576;53.366;-1.498;2023-08-01T03:01:35;3.97;;;1.92;;
41897;SDS011;27576;53.366;-1.498;2023-08-01T03:04:04;8.32;;;2.10;;
41897;SDS011;27576;53.366;-1.498;2023-08-01T03:06:31;5.95;;;1.73;;
41897;SDS011;27576;53.366;-1.498;2023-08-01T03:08:57;6.60;;;2.30;;
41897;SDS011;27576;53.366;-1.498;2023-08-01T03:11:23;3.10;;;1.50;;
41897;SDS011;27576;53.366;-1.498;2023-08-01T03:13:48;2.83;;;1.40;;
41897;SDS011;27576;53.366;-1.498;2023-08-01T03:16:14;9.93;;;2.35;;
41897;SDS011;27576;53.366;-1.498;2023-08-01T03:18:40;4.40;;;1.73;;
41897;SDS011;27576;53.366;-1.498;2023-08-01T03:21:05;7.53;;;1.90;;
41897;SDS011;27576;53.366;-1.498;2023-08-01T03:23:30;6.28;;;1.80;;
41897;SDS011;27576;53.366;-1.498;2023-08-01T03:25:56;5.03;;;2.08;;
41897;SDS011;27576;53.366;-1.498;2023-08-01T03:28:22;6.47;;;2.10;;
41897;SDS011;27576;53.366;-1.498;2023-08-01T03:30:48;8.90;;;2.15;;
41897;SDS011;27576;53.366;-1.498;2023-08-01T03:33:15;9.23;;;2.25;;
41897;SDS011;27576;53.366;-1.498;2023-08-01T03:35:41;6.55;;;1.90;;
41897;SDS011;27576;53.366;-1.498;2023-08-01T03:38:06;5.75;;;2.10;;
41897;SDS011;27576;53.366;-1.498;2023-08-01T03:40:31;7.05;;;2.40;;
41897;SDS011;27576;53.366;-1.498;2023-08-01T03:42:57;4.78;;;1.83;;
41897;SDS011;27576;53.366;-1.498;2023-08-01T03:45:22;6.78;;;2.17;;
41897;SDS011;27576;53.366;-1.498;2023-08-01T03:47:48;6.40;;;1.70;;
41897;SDS011;27576;53.366;-1.498;2023-08-01T03:50:13;4.60;;;1.48;;
41897;SDS011;27576;53.366;-1.498;2023-08-01T03:52:39;7.00;;;1.85;;
41897;SDS011;27576;53.366;-1.498;2023-08-01T03:55:04;5.45;;;2.03;;
41897;SDS011;27576;53.366;-1.498;2023-08-01T03:57:30;10.65;;;1.90;;
41897;SDS011;27576;53.366;-1.498;2023-08-01T03:59:58;4.40;;;1.90;;
41897;SDS011;27576;53.366;-1.498;2023-08-01T04:02:24;6.22;;;1.83;;
41897;SDS011;27576;53.366;-1.498;2023-08-01T04:04:49;4.78;;;1.73;;
41897;SDS011;27576;53.366;-1.498;2023-08-01T04:07:14;6.70;;;2.10;;
41897;SDS011;27576;53.366;-1.498;2023-08-01T04:09:40;6.63;;;2.22;;
41897;SDS011;27576;53.366;-1.498;2023-08-01T04:12:05;9.02;;;2.33;;
41897;SDS011;27576;53.366;-1.498;2023-08-01T04:14:31;7.68;;;2.53;;
41897;SDS011;27576;53.366;-1.498;2023-08-01T04:16:57;5.57;;;1.88;;
41897;SDS011;27576;53.366;-1.498;2023-08-01T04:19:22;4.50;;;1.77;;
41897;SDS011;27576;53.366;-1.498;2023-08-01T04:21:48;5.40;;;2.35;;
41897;SDS011;27576;53.366;-1.498;2023-08-01T04:24:14;9.68;;;2.00;;
41897;SDS011;27576;53.366;-1.498;2023-08-01T04:26:39;8.65;;;2.13;;
41897;SDS011;27576;53.366;-1.498;2023-08-01T04:29:04;8.50;;;2.08;;
41897;SDS011;27576;53.366;-1.498;2023-08-01T04:31:30;6.72;;;2.25;;
41897;SDS011;27576;53.366;-1.498;2023-08-01T04:33:55;5.32;;;2.03;;
41897;SDS011;27576;53.366;-1.498;2023-08-01T04:36:20;8.38;;;2.03;;
41897;SDS011;27576;53.366;-1.498;2023-08-01T04:38:46;7.40;;;2.22;;
41897;SDS011;27576;53.366;-1.498;2023-08-01T04:41:12;5.57;;;2.15;;
41897;SDS011;27576;53.366;-1.498;2023-08-01T04:43:37;8.20;;;2.25;;
41897;SDS011;27576;53.366;-1.498;2023-08-01T04:46:02;7.50;;;2.20;;
41897;SDS011;27576;53.366;-1.498;2023-08-01T04:48:28;6.80;;;2.38;;
41897;SDS011;27576;53.366;-1.498;2023-08-01T04:50:53;7.70;;;2.00;;
41897;SDS011;27576;53.366;-1.498;2023-08-01T04:53:18;4.68;;;2.35;;
41897;SDS011;27576;53.366;-1.498;2023-08-01T04:55:44;5.72;;;2.30;;
41897;SDS011;27576;53.366;-1.498;2023-08-01T04:58:09;4.50;;;1.90;;
41897;SDS011;27576;53.366;-1.498;2023-08-01T05:00:34;5.30;;;2.30;;
41897;SDS011;27576;53.366;-1.498;2023-08-01T05:03:00;4.68;;;2.17;;
41897;SDS011;27576;53.366;-1.498;2023-08-01T05:05:26;6.07;;;1.50;;
41897;SDS011;27576;53.366;-1.498;2023-08-01T05:07:51;3.70;;;1.83;;
41897;SDS011;27576;53.366;-1.498;2023-08-01T05:10:16;3.67;;;1.58;;
41897;SDS011;27576;53.366;-1.498;2023-08-01T05:12:42;5.28;;;2.20;;
41897;SDS011;27576;53.366;-1.498;2023-08-01T05:15:07;6.60;;;1.60;;
41897;SDS011;27576;53.366;-1.498;2023-08-01T05:17:33;3.13;;;1.50;;
41897;SDS011;27576;53.366;-1.498;2023-08-01T05:19:58;5.20;;;1.73;;
41897;SDS011;27576;53.366;-1.498;2023-08-01T05:22:23;3.55;;;2.05;;
41897;SDS011;27576;53.366;-1.498;2023-08-01T05:24:49;4.78;;;1.52;;
41897;SDS011;27576;53.366;-1.498;2023-08-01T05:27:14;3.47;;;1.00;;
41897;SDS011;27576;53.366;-1.498;2023-08-01T05:29:39;5.97;;;1.60;;
41897;SDS011;27576;53.366;-1.498;2023-08-01T05:32:05;3.67;;;1.88;;
41897;SDS011;27576;53.366;-1.498;2023-08-01T05:34:31;4.60;;;1.55;;
41897;SDS011;27576;53.366;-1.498;2023-08-01T05:36:56;3.25;;;1.48;;
41897;SDS011;27576;53.366;-1.498;2023-08-01T05:39:21;1.33;;;1.10;;
41897;SDS011;27576;53.366;-1.498;2023-08-01T05:41:47;3.78;;;1.70;;
41897;SDS011;27576;53.366;-1.498;2023-08-01T05:44:12;3.20;;;1.17;;
41897;SDS011;27576;53.366;-1.498;2023-08-01T05:46:37;2.65;;;1.10;;
41897;SDS011;27576;53.366;-1.498;2023-08-01T05:49:03;4.05;;;1.13;;
41897;SDS011;27576;53.366;-1.498;2023-08-01T05:51:28;2.75;;;1.38;;
41897;SDS011;27576;53.366;-1.498;2023-08-01T05:53:53;3.78;;;1.50;;
41897;SDS011;27576;53.366;-1.498;2023-08-01T05:56:19;6.75;;;1.65;;
41897;SDS011;27576;53.366;-1.498;2023-08-01T05:58:44;7.57;;;1.90;;
41897;SDS011;27576;53.366;-1.498;2023-08-01T06:01:10;5.07;;;1.95;;
41897;SDS011;27576;53.366;-1.498;2023-08-01T06:03:36;5.53;;;1.73;;
41897;SDS011;27576;53.366;-1.498;2023-08-01T06:06:02;5.30;;;1.70;;
41897;SDS011;27576;53.366;-1.498;2023-08-01T06:08:28;9.05;;;2.63;;
41897;SDS011;27576;53.366;-1.498;2023-08-01T06:10:53;8.50;;;2.30;;
41897;SDS011;27576;53.366;-1.498;2023-08-01T06:13:18;5.43;;;1.95;;
41897;SDS011;27576;53.366;-1.498;2023-08-01T06:15:45;5.55;;;2.05;;
41897;SDS011;27576;53.366;-1.498;2023-08-01T06:18:11;7.20;;;2.25;;
41897;SDS011;27576;53.366;-1.498;2023-08-01T06:20:37;4.82;;;2.08;;
41897;SDS011;27576;53.366;-1.498;2023-08-01T06:23:03;8.68;;;2.50;;
41897;SDS011;27576;53.366;-1.498;2023-08-01T06:25:28;8.68;;;2.50;;
41897;SDS011;27576;53.366;-1.498;2023-08-01T06:27:53;9.20;;;2.58;;
41897;SDS011;27576;53.366;-1.498;2023-08-01T06:30:19;10.00;;;2.55;;
41897;SDS011;27576;53.366;-1.498;2023-08-01T06:32:44;6.45;;;2.25;;
41897;SDS011;27576;53.366;-1.498;2023-08-01T06:35:10;6.95;;;2.03;;
41897;SDS011;27576;53.366;-1.498;2023-08-01T06:37:35;4.40;;;1.92;;
41897;SDS011;27576;53.366;-1.498;2023-08-01T06:40:00;7.53;;;2.08;;
41897;SDS011;27576;53.366;-1.498;2023-08-01T06:42:26;7.95;;;2.40;;
41897;SDS011;27576;53.366;-1.498;2023-08-01T06:44:51;4.32;;;2.25;;
41897;SDS011;27576;53.366;-1.498;2023-08-01T06:47:17;9.38;;;2.78;;
41897;SDS011;27576;53.366;-1.498;2023-08-01T06:49:42;9.43;;;2.58;;
41897;SDS011;27576;53.366;-1.498;2023-08-01T06:52:08;9.32;;;2.75;;
41897;SDS011;27576;53.366;-1.498;2023-08-01T06:54:34;8.30;;;2.25;;
41897;SDS011;27576;53.366;-1.498;2023-08-01T06:56:59;6.93;;;2.17;;
41897;SDS011;27576;53.366;-1.498;2023-08-01T06:59:25;5.50;;;2.22;;
41897;SDS011;27576;53.366;-1.498;2023-08-01T07:01:51;7.85;;;2.03;;
41897;SDS011;27576;53.366;-1.498;2023-08-01T07:04:16;9.32;;;2.15;;
41897;SDS011;27576;53.366;-1.498;2023-08-01T07:06:42;5.18;;;2.47;;
41897;SDS011;27576;53.366;-1.498;2023-08-01T07:09:07;6.22;;;1.92;;
41897;SDS011;27576;53.366;-1.498;2023-08-01T07:11:33;8.45;;;2.55;;
41897;SDS011;27576;53.366;-1.498;2023-08-01T07:13:58;6.07;;;2.38;;
41897;SDS011;27576;53.366;-1.498;2023-08-01T07:16:24;8.05;;;2.40;;
41897;SDS011;27576;53.366;-1.498;2023-08-01T07:18:49;7.95;;;2.33;;
41897;SDS011;27576;53.366;-1.498;2023-08-01T07:21:16;10.48;;;2.40;;
41897;SDS011;27576;53.366;-1.498;2023-08-01T07:23:42;9.65;;;2.33;;
41897;SDS011;27576;53.366;-1.498;2023-08-01T07:26:07;8.20;;;2.35;;
41897;SDS011;27576;53.366;-1.498;2023-08-01T07:28:33;5.93;;;2.25;;
41897;SDS011;27576;53.366;-1.498;2023-08-01T07:30:59;8.75;;;2.80;;
41897;SDS011;27576;53.366;-1.498;2023-08-01T07:33:29;6.53;;;2.28;;
41897;SDS011;27576;53.366;-1.498;2023-08-01T07:35:54;7.57;;;2.00;;
41897;SDS011;27576;53.366;-1.498;2023-08-01T07:38:20;7.05;;;2.10;;
41897;SDS011;27576;53.366;-1.498;2023-08-01T07:40:45;5.57;;;1.80;;
41897;SDS011;27576;53.366;-1.498;2023-08-01T07:43:10;6.50;;;2.38;;
41897;SDS011;27576;53.366;-1.498;2023-08-01T07:45:36;4.78;;;2.00;;
41897;SDS011;27576;53.366;-1.498;2023-08-01T07:48:02;9.02;;;2.75;;
41897;SDS011;27576;53.366;-1.498;2023-08-01T07:50:28;5.78;;;2.17;;
41897;SDS011;27576;53.366;-1.498;2023-08-01T07:52:53;3.28;;;1.88;;
41897;SDS011;27576;53.366;-1.498;2023-08-01T07:55:18;7.57;;;2.20;;
41897;SDS011;27576;53.366;-1.498;2023-08-01T07:57:45;5.72;;;1.75;;
41897;SDS011;27576;53.366;-1.498;2023-08-01T08:00:11;5.05;;;2.08;;
41897;SDS011;27576;53.366;-1.498;2023-08-01T08:02:37;7.30;;;2.35;;
41897;SDS011;27576;53.366;-1.498;2023-08-01T08:05:02;7.47;;;2.13;;
41897;SDS011;27576;53.366;-1.498;2023-08-01T08:07:27;7.72;;;2.25;;
41897;SDS011;27576;53.366;-1.498;2023-08-01T08:09:53;6.22;;;1.90;;
41897;SDS011;27576;53.366;-1.498;2023-08-01T08:12:20;5.93;;;2.33;;
41897;SDS011;27576;53.366;-1.498;2023-08-01T08:14:46;4.32;;;1.70;;
41897;SDS011;27576;53.366;-1.498;2023-08-01T08:17:11;6.78;;;2.35;;
41897;SDS011;27576;53.366;-1.498;2023-08-01T08:19:37;8.13;;;2.17;;
41897;SDS011;27576;53.366;-1.498;2023-08-01T08:22:02;9.63;;;2.33;;
41897;SDS011;27576;53.366;-1.498;2023-08-01T08:24:28;7.38;;;1.73;;
41897;SDS011;27576;53.366;-1.498;2023-08-01T08:26:53;7.65;;;2.30;;
41897;SDS011;27576;53.366;-1.498;2023-08-01T08:29:19;6.00;;;2.10;;
41897;SDS011;27576;53.366;-1.498;2023-08-01T08:31:44;7.80;;;2.45;;
41897;SDS011;27576;53.366;-1.498;2023-08-01T08:34:10;5.05;;;1.63;;
41897;SDS011;27576;53.366;-1.498;2023-08-01T08:36:35;5.28;;;1.85;;
41897;SDS011;27576;53.366;-1.498;2023-08-01T08:39:00;4.80;;;2.08;;
41897;SDS011;27576;53.366;-1.498;2023-08-01T08:41:27;7.25;;;2.22;;
41897;SDS011;27576;53.366;-1.498;2023-08-01T08:43:56;5.28;;;1.95;;
41897;SDS011;27576;53.366;-1.498;2023-08-01T08:46:23;7.30;;;2.42;;
41897;SDS011;27576;53.366;-1.498;2023-08-01T08:48:54;6.85;;;2.00;;
41897;SDS011;27576;53.366;-1.498;2023-08-01T08:51:21;5.93;;;2.00;;
41897;SDS011;27576;53.366;-1.498;2023-08-01T08:53:49;7.35;;;2.47;;
41897;SDS011;27576;53.366;-1.498;2023-08-01T08:56:18;9.45;;;2.45;;
41897;SDS011;27576;53.366;-1.498;2023-08-01T08:58:44;4.30;;;1.85;;
41897;SDS011;27576;53.366;-1.498;2023-08-01T09:01:12;5.72;;;2.05;;
41897;SDS011;27576;53.366;-1.498;2023-08-01T09:03:37;4.97;;;1.60;;
41897;SDS011;27576;53.366;-1.498;2023-08-01T09:06:25;3.25;;;1.90;;
41897;SDS011;27576;53.366;-1.498;2023-08-01T09:08:51;8.05;;;2.95;;
41897;SDS011;27576;53.366;-1.498;2023-08-01T09:14:12;5.07;;;1.80;;
41897;SDS011;27576;53.366;-1.498;2023-08-01T09:16:39;4.75;;;1.70;;
41897;SDS011;27576;53.366;-1.498;2023-08-01T09:19:05;6.55;;;2.08;;
41897;SDS011;27576;53.366;-1.498;2023-08-01T09:21:32;9.18;;;2.10;;
41897;SDS011;27576;53.366;-1.498;2023-08-01T09:24:09;6.32;;;2.10;;
41897;SDS011;27576;53.366;-1.498;2023-08-01T09:26:35;6.80;;;2.55;;
41897;SDS011;27576;53.366;-1.498;2023-08-01T09:29:01;7.20;;;2.03;;
41897;SDS011;27576;53.366;-1.498;2023-08-01T09:31:27;9.20;;;2.42;;
41897;SDS011;27576;53.366;-1.498;2023-08-01T09:33:54;5.18;;;2.40;;
41897;SDS011;27576;53.366;-1.498;2023-08-01T09:36:22;7.15;;;2.30;;
41897;SDS011;27576;53.366;-1.498;2023-08-01T09:38:49;4.07;;;1.98;;
41897;SDS011;27576;53.366;-1.498;2023-08-01T09:41:17;7.43;;;2.55;;
41897;SDS011;27576;53.366;-1.498;2023-08-01T09:43:44;10.40;;;2.17;;
41897;SDS011;27576;53.366;-1.498;2023-08-01T09:46:11;7.15;;;2.33;;
41897;SDS011;27576;53.366;-1.498;2023-08-01T09:48:36;5.30;;;2.30;;
41897;SDS011;27576;53.366;-1.498;2023-08-01T09:51:06;7.50;;;2.83;;
41897;SDS011;27576;53.366;-1.498;2023-08-01T09:53:32;3.22;;;1.92;;
41897;SDS011;27576;53.366;-1.498;2023-08-01T09:56:02;6.72;;;2.25;;
41897;SDS011;27576;53.366;-1.498;2023-08-01T09:58:32;6.15;;;2.15;;
41897;SDS011;27576;53.366;-1.498;2023-08-01T10:00:59;6.18;;;3.00;;
41897;SDS011;27576;53.366;-1.498;2023-08-01T10:03:26;6.95;;;2.22;;
41897;SDS011;27576;53.366;-1.498;2023-08-01T10:05:53;6.18;;;2.50;;
41897;SDS011;27576;53.366;-1.498;2023-08-01T10:08:20;5.13;;;2.33;;
41897;SDS011;27576;53.366;-1.498;2023-08-01T10:10:46;6.15;;;2.28;;
41897;SDS011;27576;53.366;-1.498;2023-08-01T10:13:13;7.90;;;2.42;;
41897;SDS011;27576;53.366;-1.498;2023-08-01T10:15:38;7.32;;;2.28;;
41897;SDS011;27576;53.366;-1.498;2023-08-01T10:18:05;11.13;;;2.47;;
41897;SDS011;27576;53.366;-1.498;2023-08-01T10:20:30;9.13;;;2.35;;
41897;SDS011;27576;53.366;-1.498;2023-08-01T10:22:56;7.00;;;2.03;;
41897;SDS011;27576;53.366;-1.498;2023-08-01T10:25:23;6.28;;;2.20;;
41897;SDS011;27576;53.366;-1.498;2023-08-01T10:28:01;4.53;;;2.00;;
41897;SDS011;27576;53.366;-1.498;2023-08-01T10:30:28;8.13;;;2.13;;
41897;SDS011;27576;53.366;-1.498;2023-08-01T10:32:54;8.52;;;1.98;;
41897;SDS011;27576;53.366;-1.498;2023-08-01T10:35:31;5.45;;;2.03;;
41897;SDS011;27576;53.366;-1.498;2023-08-01T10:38:04;5.20;;;1.67;;
41897;SDS011;27576;53.366;-1.498;2023-08-01T10:40:42;6.97;;;1.98;;
41897;SDS011;27576;53.366;-1.498;2023-08-01T10:43:24;5.93;;;1.88;;
41897;SDS011;27576;53.366;-1.498;2023-08-01T10:46:02;5.93;;;1.60;;
41897;SDS011;27576;53.366;-1.498;2023-08-01T10:48:28;7.88;;;2.17;;
41897;SDS011;27576;53.366;-1.498;2023-08-01T10:50:54;7.20;;;1.90;;
41897;SDS011;27576;53.366;-1.498;2023-08-01T10:53:22;5.88;;;1.75;;
41897;SDS011;27576;53.366;-1.498;2023-08-01T10:55:48;4.47;;;1.52;;
41897;SDS011;27576;53.366;-1.498;2023-08-01T10:58:14;4.85;;;1.58;;
41897;SDS011;27576;53.366;-1.498;2023-08-01T11:00:41;5.00;;;1.70;;
41897;SDS011;27576;53.366;-1.498;2023-08-01T11:03:07;5.13;;;1.83;;
41897;SDS011;27576;53.366;-1.498;2023-08-01T11:05:32;2.67;;;1.20;;
41897;SDS011;27576;53.366;-1.498;2023-08-01T11:07:58;2.22;;;1.25;;
41897;SDS011;27576;53.366;-1.498;2023-08-01T11:10:25;6.50;;;1.48;;
41897;SDS011;27576;53.366;-1.498;2023-08-01T11:12:52;2.45;;;1.27;;
41897;SDS011;27576;53.366;-1.498;2023-08-01T11:15:18;1.90;;;1.42;;
41897;SDS011;27576;53.366;-1.498;2023-08-01T11:17:48;5.38;;;1.65;;
41897;SDS011;27576;53.366;-1.498;2023-08-01T11:20:15;2.90;;;1.38;;
41897;SDS011;27576;53.366;-1.498;2023-08-01T11:22:54;6.00;;;1.45;;
41897;SDS011;27576;53.366;-1.498;2023-08-01T11:28:01;6.10;;;1.38;;
41897;SDS011;27576;53.366;-1.498;2023-08-01T11:30:31;4.82;;;1.38;;
41897;SDS011;27576;53.366;-1.498;2023-08-01T11:32:57;6.38;;;1.77;;
41897;SDS011;27576;53.366;-1.498;2023-08-01T11:35:23;3.53;;;1.30;;
41897;SDS011;27576;53.366;-1.498;2023-08-01T11:37:49;2.80;;;1.20;;
41897;SDS011;27576;53.366;-1.498;2023-08-01T11:40:16;4.43;;;1.55;;
41897;SDS011;27576;53.366;-1.498;2023-08-01T11:42:42;4.60;;;1.60;;
41897;SDS011;27576;53.366;-1.498;2023-08-01T11:45:08;2.15;;;1.20;;
41897;SDS011;27576;53.366;-1.498;2023-08-01T11:47:36;1.17;;;0.90;;
41897;SDS011;27576;53.366;-1.498;2023-08-01T11:50:02;2.75;;;1.52;;
41897;SDS011;27576;53.366;-1.498;2023-08-01T11:52:28;3.22;;;1.27;;
41897;SDS011;27576;53.366;-1.498;2023-08-01T11:54:54;6.03;;;1.25;;
41897;SDS011;27576;53.366;-1.498;2023-08-01T11:57:20;4.18;;;1.10;;
41897;SDS011;27576;53.366;-1.498;2023-08-01T11:59:47;2.88;;;1.10;;
41897;SDS011;27576;53.366;-1.498;2023-08-01T12:02:21;3.47;;;1.00;;
41897;SDS011;27576;53.366;-1.498;2023-08-01T12:04:46;7.28;;;1.35;;
41897;SDS011;27576;53.366;-1.498;2023-08-01T12:07:12;4.90;;;1.95;;
41897;SDS011;27576;53.366;-1.498;2023-08-01T12:09:39;1.55;;;1.08;;
41897;SDS011;27576;53.366;-1.498;2023-08-01T12:12:05;3.03;;;1.00;;
41897;SDS011;27576;53.366;-1.498;2023-08-01T12:14:30;3.40;;;1.30;;
41897;SDS011;27576;53.366;-1.498;2023-08-01T12:16:56;2.85;;;1.38;;
41897;SDS011;27576;53.366;-1.498;2023-08-01T12:19:21;1.55;;;1.25;;
41897;SDS011;27576;53.366;-1.498;2023-08-01T12:21:49;2.65;;;1.17;;
41897;SDS011;27576;53.366;-1.498;2023-08-01T12:24:14;3.83;;;1.35;;
41897;SDS011;27576;53.366;-1.498;2023-08-01T12:26:40;2.83;;;1.23;;
41897;SDS011;27576;53.366;-1.498;2023-08-01T12:29:05;3.10;;;1.33;;
41897;SDS011;27576;53.366;-1.498;2023-08-01T12:31:30;4.38;;;1.60;;
41897;SDS011;27576;53.366;-1.498;2023-08-01T12:33:56;3.75;;;1.20;;
41897;SDS011;27576;53.366;-1.498;2023-08-01T12:36:21;1.77;;;1.15;;
41897;SDS011;27576;53.366;-1.498;2023-08-01T12:38:47;4.32;;;1.48;;
41897;SDS011;27576;53.366;-1.498;2023-08-01T12:41:12;4.38;;;1.50;;
41897;SDS011;27576;53.366;-1.498;2023-08-01T12:43:38;3.63;;;1.52;;
41897;SDS011;27576;53.366;-1.498;2023-08-01T12:46:03;10.55;;;2.08;;
41897;SDS011;27576;53.366;-1.498;2023-08-01T12:48:29;2.72;;;1.40;;
41897;SDS011;27576;53.366;-1.498;2023-08-01T12:50:55;6.15;;;1.70;;
41897;SDS011;27576;53.366;-1.498;2023-08-01T12:53:21;4.45;;;1.63;;
41897;SDS011;27576;53.366;-1.498;2023-08-01T12:55:47;5.78;;;1.80;;
41897;SDS011;27576;53.366;-1.498;2023-08-01T12:58:15;5.63;;;1.73;;
41897;SDS011;27576;53.366;-1.498;2023-08-01T13:00:40;4.13;;;1.77;;
41897;SDS011;27576;53.366;-1.498;2023-08-01T13:03:07;3.53;;;1.50;;
41897;SDS011;27576;53.366;-1.498;2023-08-01T13:05:36;2.58;;;1.58;;
41897;SDS011;27576;53.366;-1.498;2023-08-01T13:08:02;5.07;;;1.73;;
41897;SDS011;27576;53.366;-1.498;2023-08-01T13:10:35;4.05;;;1.75;;
41897;SDS011;27576;53.366;-1.498;2023-08-01T13:13:02;6.90;;;1.60;;
41897;SDS011;27576;53.366;-1.498;2023-08-01T13:15:27;5.47;;;1.63;;
41897;SDS011;27576;53.366;-1.498;2023-08-01T13:17:53;5.82;;;1.55;;
41897;SDS011;27576;53.366;-1.498;2023-08-01T13:20:19;5.20;;;1.48;;
41897;SDS011;27576;53.366;-1.498;2023-08-01T13:22:45;5.85;;;1.73;;
41897;SDS011;27576;53.366;-1.498;2023-08-01T13:25:12;4.65;;;1.40;;
41897;SDS011;27576;53.366;-1.498;2023-08-01T13:27:38;3.60;;;1.58;;
41897;SDS011;27576;53.366;-1.498;2023-08-01T13:30:03;5.22;;;1.40;;
41897;SDS011;27576;53.366;-1.498;2023-08-01T13:32:29;3.65;;;1.40;;
41897;SDS011;27576;53.366;-1.498;2023-08-01T13:34:54;3.42;;;1.90;;
41897;SDS011;27576;53.366;-1.498;2023-08-01T13:37:20;3.55;;;1.75;;
41897;SDS011;27576;53.366;-1.498;2023-08-01T13:39:45;3.38;;;1.52;;
41897;SDS011;27576;53.366;-1.498;2023-08-01T13:42:11;5.38;;;1.60;;
41897;SDS011;27576;53.366;-1.498;2023-08-01T13:44:37;2.58;;;1.33;;
41897;SDS011;27576;53.366;-1.498;2023-08-01T13:47:02;2.53;;;1.38;;
41897;SDS011;27576;53.366;-1.498;2023-08-01T13:49:28;1.85;;;1.10;;
41897;SDS011;27576;53.366;-1.498;2023-08-01T13:51:54;4.55;;;1.30;;
41897;SDS011;27576;53.366;-1.498;2023-08-01T13:54:19;2.00;;;1.10;;
41897;SDS011;27576;53.366;-1.498;2023-08-01T13:56:45;4.07;;;1.27;;
41897;SDS011;27576;53.366;-1.498;2023-08-01T13:59:10;1.10;;;1.00;;
41897;SDS011;27576;53.366;-1.498;2023-08-01T14:01:35;3.85;;;1.58;;
41897;SDS011;27576;53.366;-1.498;2023-08-01T14:04:02;2.00;;;1.23;;
41897;SDS011;27576;53.366;-1.498;2023-08-01T14:06:28;3.60;;;1.20;;
41897;SDS011;27576;53.366;-1.498;2023-08-01T14:08:54;3.08;;;1.23;;
41897;SDS011;27576;53.366;-1.498;2023-08-01T14:11:19;3.35;;;1.45;;
41897;SDS011;27576;53.366;-1.498;2023-08-01T14:13:45;3.47;;;1.40;;
41897;SDS011;27576;53.366;-1.498;2023-08-01T14:16:10;5.38;;;1.27;;
41897;SDS011;27576;53.366;-1.498;2023-08-01T14:18:35;3.67;;;1.40;;
41897;SDS011;27576;53.366;-1.498;2023-08-01T14:21:01;6.82;;;1.45;;
41897;SDS011;27576;53.366;-1.498;2023-08-01T14:23:27;4.45;;;1.50;;
41897;SDS011;27576;53.366;-1.498;2023-08-01T14:25:52;5.85;;;1.55;;
41897;SDS011;27576;53.366;-1.498;2023-08-01T14:28:18;3.40;;;1.35;;
41897;SDS011;27576;53.366;-1.498;2023-08-01T14:30:43;4.65;;;1.33;;
41897;SDS011;27576;53.366;-1.498;2023-08-01T14:33:09;4.32;;;1.75;;